sensor_id;sensor_type;location;lat;lon;timestamp;pressure;altitude;pressure_sealevel;temperature;humidity
38630;BME280;24384;51.988;4.644;2022-08-21T00:02:18;101965.88;;;19.87;100.00
38630;BME280;24384;51.988;4.644;2022-08-21T00:04:44;101964.69;;;19.88;100.00
38630;BME280;24384;51.988;4.644;2022-08-21T00:07:09;101966.13;;;19.70;100.00
38630;BME280;24384;51.988;4.644;2022-08-21T00:09:35;101956.63;;;19.66;100.00
38630;BME280;24384;51.988;4.644;2022-08-21T00:12:01;101966.84;;;19.79;100.00
38630;BME280;24384;51.988;4.644;2022-08-21T00:14:26;101959.81;;;19.52;100.00
38630;BME280;24384;51.988;4.644;2022-08-21T00:16:52;101965.28;;;19.70;100.00
38630;BME280;24384;51.988;4.644;2022-08-21T00:19:17;101959.81;;;19.52;100.00
38630;BME280;24384;51.988;4.644;2022-08-21T00:21:43;101963.13;;;19.30;100.00
38630;BME280;24384;51.988;4.644;2022-08-21T00:24:08;101970.38;;;19.04;100.00
38630;BME280;24384;51.988;4.644;2022-08-21T00:26:34;101974.16;;;18.96;100.00
38630;BME280;24384;51.988;4.644;2022-08-21T00:28:59;101973.91;;;18.88;100.00
38630;BME280;24384;51.988;4.644;2022-08-21T00:31:25;101977.69;;;18.80;100.00
38630;BME280;24384;51.988;4.644;2022-08-21T00:33:50;101979.09;;;18.74;100.00
38630;BME280;24384;51.988;4.644;2022-08-21T00:36:16;101984.34;;;18.52;100.00
38630;BME280;24384;51.988;4.644;2022-08-21T00:38:41;101980.94;;;18.37;100.00
38630;BME280;24384;51.988;4.644;2022-08-21T00:41:09;101980.38;;;18.44;100.00
38630;BME280;24384;51.988;4.644;2022-08-21T00:43:37;101986.13;;;18.56;100.00
38630;BME280;24384;51.988;4.644;2022-08-21T00:46:03;101983.09;;;18.61;100.00
38630;BME280;24384;51.988;4.644;2022-08-21T00:48:29;101981.16;;;18.86;100.00
38630;BME280;24384;51.988;4.644;2022-08-21T00:51:04;101981.94;;;18.74;100.00
38630;BME280;24384;51.988;4.644;2022-08-21T00:53:31;101980.41;;;18.77;100.00
38630;BME280;24384;51.988;4.644;2022-08-21T00:55:58;101972.69;;;18.77;100.00
38630;BME280;24384;51.988;4.644;2022-08-21T00:58:26;101971.44;;;18.66;100.00
38630;BME280;24384;51.988;4.644;2022-08-21T01:00:52;101975.06;;;18.75;100.00
38630;BME280;24384;51.988;4.644;2022-08-21T01:03:21;101966.78;;;18.94;100.00
38630;BME280;24384;51.988;4.644;2022-08-21T01:05:47;101966.19;;;19.01;100.00
38630;BME280;24384;51.988;4.644;2022-08-21T01:08:15;101957.81;;;19.41;100.00
38630;BME280;24384;51.988;4.644;2022-08-21T01:10:42;101962.44;;;19.21;100.00
38630;BME280;24384;51.988;4.644;2022-08-21T01:13:10;101960.84;;;19.12;100.00
38630;BME280;24384;51.988;4.644;2022-08-21T01:15:39;101964.88;;;19.11;100.00
38630;BME280;24384;51.988;4.644;2022-08-21T01:18:09;101959.91;;;19.20;100.00
38630;BME280;24384;51.988;4.644;2022-08-21T01:20:38;101954.41;;;19.03;100.00
38630;BME280;24384;51.988;4.644;2022-08-21T01:23:05;101960.25;;;18.61;100.00
38630;BME280;24384;51.988;4.644;2022-08-21T01:25:32;101973.13;;;19.12;100.00
38630;BME280;24384;51.988;4.644;2022-08-21T01:27:59;101965.28;;;18.76;100.00
38630;BME280;24384;51.988;4.644;2022-08-21T01:30:27;101966.44;;;18.63;100.00
38630;BME280;24384;51.988;4.644;2022-08-21T01:32:54;101973.22;;;18.17;100.00
38630;BME280;24384;51.988;4.644;2022-08-21T01:35:20;101971.69;;;18.20;100.00
38630;BME280;24384;51.988;4.644;2022-08-21T01:37:46;101972.19;;;18.22;100.00
38630;BME280;24384;51.988;4.644;2022-08-21T01:40:13;101975.22;;;18.17;100.00
38630;BME280;24384;51.988;4.644;2022-08-21T01:42:42;101973.28;;;18.09;100.00
38630;BME280;24384;51.988;4.644;2022-08-21T01:45:08;101967.28;;;18.43;100.00
38630;BME280;24384;51.988;4.644;2022-08-21T01:47:35;101972.72;;;18.15;100.00
38630;BME280;24384;51.988;4.644;2022-08-21T01:50:00;101978.28;;;18.32;100.00
38630;BME280;24384;51.988;4.644;2022-08-21T01:52:26;101970.97;;;18.23;100.00
38630;BME280;24384;51.988;4.644;2022-08-21T01:54:52;101980.44;;;18.15;100.00
38630;BME280;24384;51.988;4.644;2022-08-21T01:57:17;101972.19;;;18.01;100.00
38630;BME280;24384;51.988;4.644;2022-08-21T01:59:43;101978.84;;;18.05;100.00
38630;BME280;24384;51.988;4.644;2022-08-21T02:02:08;101968.28;;;18.06;100.00
38630;BME280;24384;51.988;4.644;2022-08-21T02:04:34;101970.91;;;18.11;100.00
38630;BME280;24384;51.988;4.644;2022-08-21T02:07:00;101973.97;;;18.06;100.00
38630;BME280;24384;51.988;4.644;2022-08-21T02:09:27;101971.53;;;17.75;100.00
38630;BME280;24384;51.988;4.644;2022-08-21T02:11:52;101974.16;;;17.80;100.00
38630;BME280;24384;51.988;4.644;2022-08-21T02:14:18;101980.78;;;17.93;100.00
38630;BME280;24384;51.988;4.644;2022-08-21T02:16:44;101980.53;;;17.48;100.00
38630;BME280;24384;51.988;4.644;2022-08-21T02:19:12;101983.97;;;17.70;100.00
38630;BME280;24384;51.988;4.644;2022-08-21T02:21:37;101976.75;;;17.94;100.00
38630;BME280;24384;51.988;4.644;2022-08-21T02:24:04;101981.84;;;17.59;100.00
38630;BME280;24384;51.988;4.644;2022-08-21T02:26:29;101985.06;;;17.78;100.00
38630;BME280;24384;51.988;4.644;2022-08-21T02:28:55;101997.25;;;17.58;100.00
38630;BME280;24384;51.988;4.644;2022-08-21T02:31:20;102001.19;;;17.74;100.00
38630;BME280;24384;51.988;4.644;2022-08-21T02:33:46;102000.75;;;17.93;100.00
38630;BME280;24384;51.988;4.644;2022-08-21T02:36:12;102001.09;;;17.62;100.00
38630;BME280;24384;51.988;4.644;2022-08-21T02:38:40;102007.34;;;17.47;100.00
38630;BME280;24384;51.988;4.644;2022-08-21T02:41:08;102014.38;;;17.49;100.00
38630;BME280;24384;51.988;4.644;2022-08-21T02:43:34;102018.41;;;17.40;100.00
38630;BME280;24384;51.988;4.644;2022-08-21T02:46:02;102013.31;;;17.62;100.00
38630;BME280;24384;51.988;4.644;2022-08-21T02:48:30;102004.28;;;17.60;100.00
38630;BME280;24384;51.988;4.644;2022-08-21T02:51:00;102007.28;;;17.64;100.00
38630;BME280;24384;51.988;4.644;2022-08-21T02:53:27;102009.25;;;17.72;100.00
38630;BME280;24384;51.988;4.644;2022-08-21T02:55:53;102011.09;;;17.97;100.00
38630;BME280;24384;51.988;4.644;2022-08-21T02:58:26;102006.66;;;17.58;100.00
38630;BME280;24384;51.988;4.644;2022-08-21T03:00:52;101998.22;;;17.70;100.00
38630;BME280;24384;51.988;4.644;2022-08-21T03:03:18;102005.66;;;17.46;100.00
38630;BME280;24384;51.988;4.644;2022-08-21T03:05:46;102006.53;;;17.38;100.00
38630;BME280;24384;51.988;4.644;2022-08-21T03:08:13;102014.44;;;17.32;100.00
38630;BME280;24384;51.988;4.644;2022-08-21T03:10:49;102018.78;;;17.38;100.00
38630;BME280;24384;51.988;4.644;2022-08-21T03:13:16;102020.50;;;17.31;100.00
38630;BME280;24384;51.988;4.644;2022-08-21T03:15:43;102007.75;;;17.37;100.00
38630;BME280;24384;51.988;4.644;2022-08-21T03:18:10;102007.34;;;17.47;100.00
38630;BME280;24384;51.988;4.644;2022-08-21T03:20:36;101996.41;;;17.57;100.00
38630;BME280;24384;51.988;4.644;2022-08-21T03:23:04;101995.50;;;17.36;100.00
38630;BME280;24384;51.988;4.644;2022-08-21T03:25:30;101998.53;;;17.69;100.00
38630;BME280;24384;51.988;4.644;2022-08-21T03:28:00;101986.94;;;17.74;100.00
38630;BME280;24384;51.988;4.644;2022-08-21T03:30:27;101984.66;;;17.88;100.00
38630;BME280;24384;51.988;4.644;2022-08-21T03:32:53;101993.28;;;17.79;100.00
38630;BME280;24384;51.988;4.644;2022-08-21T03:35:20;101988.97;;;17.94;100.00
38630;BME280;24384;51.988;4.644;2022-08-21T03:37:46;101989.56;;;17.88;100.00
38630;BME280;24384;51.988;4.644;2022-08-21T03:40:14;101981.75;;;17.97;100.00
38630;BME280;24384;51.988;4.644;2022-08-21T03:42:40;101973.50;;;18.04;100.00
38630;BME280;24384;51.988;4.644;2022-08-21T03:45:06;101980.50;;;17.86;100.00
38630;BME280;24384;51.988;4.644;2022-08-21T03:47:32;101983.06;;;17.78;100.00
38630;BME280;24384;51.988;4.644;2022-08-21T03:49:58;101973.63;;;17.87;100.00
38630;BME280;24384;51.988;4.644;2022-08-21T03:52:24;101973.16;;;17.85;100.00
38630;BME280;24384;51.988;4.644;2022-08-21T03:54:50;101975.19;;;18.05;100.00
38630;BME280;24384;51.988;4.644;2022-08-21T03:57:16;101960.34;;;18.53;100.00
38630;BME280;24384;51.988;4.644;2022-08-21T03:59:41;101942.41;;;18.52;100.00
38630;BME280;24384;51.988;4.644;2022-08-21T04:02:09;101936.75;;;18.44;100.00
38630;BME280;24384;51.988;4.644;2022-08-21T04:04:35;101941.31;;;18.57;100.00
38630;BME280;24384;51.988;4.644;2022-08-21T04:07:02;101934.84;;;18.48;100.00
38630;BME280;24384;51.988;4.644;2022-08-21T04:09:28;101934.59;;;18.20;100.00
38630;BME280;24384;51.988;4.644;2022-08-21T04:11:53;101949.59;;;17.96;100.00
38630;BME280;24384;51.988;4.644;2022-08-21T04:14:20;101967.22;;;17.90;100.00
38630;BME280;24384;51.988;4.644;2022-08-21T04:16:46;101972.19;;;18.22;100.00
38630;BME280;24384;51.988;4.644;2022-08-21T04:19:12;101975.84;;;18.22;100.00
38630;BME280;24384;51.988;4.644;2022-08-21T04:21:41;101972.19;;;18.22;100.00
38630;BME280;24384;51.988;4.644;2022-08-21T04:24:07;101965.91;;;18.28;100.00
38630;BME280;24384;51.988;4.644;2022-08-21T04:26:34;101965.75;;;18.25;100.00
38630;BME280;24384;51.988;4.644;2022-08-21T04:29:00;101959.31;;;18.16;100.00
38630;BME280;24384;51.988;4.644;2022-08-21T04:31:26;101965.50;;;18.38;100.00
38630;BME280;24384;51.988;4.644;2022-08-21T04:33:54;101955.78;;;18.19;100.00
38630;BME280;24384;51.988;4.644;2022-08-21T04:36:19;101968.28;;;18.06;100.00
38630;BME280;24384;51.988;4.644;2022-08-21T04:38:44;101973.06;;;18.55;100.00
38630;BME280;24384;51.988;4.644;2022-08-21T04:41:10;101976.19;;;18.42;100.00
38630;BME280;24384;51.988;4.644;2022-08-21T04:43:37;101981.63;;;17.93;100.00
38630;BME280;24384;51.988;4.644;2022-08-21T04:46:03;101992.53;;;18.12;100.00
38630;BME280;24384;51.988;4.644;2022-08-21T04:48:28;102003.59;;;17.93;100.00
38630;BME280;24384;51.988;4.644;2022-08-21T04:51:06;101998.19;;;18.20;100.00
38630;BME280;24384;51.988;4.644;2022-08-21T04:53:45;102007.16;;;18.10;100.00
38630;BME280;24384;51.988;4.644;2022-08-21T04:56:21;102011.47;;;18.37;100.00
38630;BME280;24384;51.988;4.644;2022-08-21T04:58:48;102010.53;;;18.45;100.00
38630;BME280;24384;51.988;4.644;2022-08-21T05:01:17;102023.34;;;17.98;100.00
38630;BME280;24384;51.988;4.644;2022-08-21T05:03:44;102033.13;;;17.88;100.00
38630;BME280;24384;51.988;4.644;2022-08-21T05:06:13;102037.13;;;18.16;100.00
38630;BME280;24384;51.988;4.644;2022-08-21T05:08:40;102045.31;;;17.97;100.00
38630;BME280;24384;51.988;4.644;2022-08-21T05:11:07;102065.22;;;18.06;100.00
38630;BME280;24384;51.988;4.644;2022-08-21T05:13:33;102063.81;;;17.83;100.00
38630;BME280;24384;51.988;4.644;2022-08-21T05:15:58;102074.97;;;18.05;100.00
38630;BME280;24384;51.988;4.644;2022-08-21T05:18:24;102071.28;;;18.25;100.00
38630;BME280;24384;51.988;4.644;2022-08-21T05:20:49;102081.84;;;18.04;100.00
38630;BME280;24384;51.988;4.644;2022-08-21T05:23:16;102086.81;;;17.77;100.00
38630;BME280;24384;51.988;4.644;2022-08-21T05:25:42;102105.78;;;17.82;100.00
38630;BME280;24384;51.988;4.644;2022-08-21T05:28:09;102114.66;;;18.10;100.00
38630;BME280;24384;51.988;4.644;2022-08-21T05:30:36;102128.13;;;18.01;100.00
38630;BME280;24384;51.988;4.644;2022-08-21T05:33:03;102132.22;;;18.70;100.00
38630;BME280;24384;51.988;4.644;2022-08-21T05:35:30;102109.47;;;18.62;100.00
38630;BME280;24384;51.988;4.644;2022-08-21T05:37:56;102092.22;;;19.12;100.00
38630;BME280;24384;51.988;4.644;2022-08-21T05:40:22;102076.41;;;18.81;100.00
38630;BME280;24384;51.988;4.644;2022-08-21T05:42:47;102081.53;;;18.88;100.00
38630;BME280;24384;51.988;4.644;2022-08-21T05:45:13;102076.03;;;19.04;100.00
38630;BME280;24384;51.988;4.644;2022-08-21T05:47:38;102081.56;;;19.21;100.00
38630;BME280;24384;51.988;4.644;2022-08-21T05:50:05;102075.00;;;19.20;100.00
38630;BME280;24384;51.988;4.644;2022-08-21T05:52:31;102066.28;;;19.17;100.00
38630;BME280;24384;51.988;4.644;2022-08-21T05:54:56;102063.63;;;19.32;100.00
38630;BME280;24384;51.988;4.644;2022-08-21T05:57:22;102074.88;;;19.17;100.00
38630;BME280;24384;51.988;4.644;2022-08-21T05:59:49;102068.75;;;19.39;100.00
38630;BME280;24384;51.988;4.644;2022-08-21T06:02:17;102058.44;;;19.83;100.00
38630;BME280;24384;51.988;4.644;2022-08-21T06:04:43;102052.97;;;19.66;100.00
38630;BME280;24384;51.988;4.644;2022-08-21T06:07:08;102061.63;;;19.45;100.00
38630;BME280;24384;51.988;4.644;2022-08-21T06:09:33;102052.63;;;19.91;100.00
38630;BME280;24384;51.988;4.644;2022-08-21T06:12:06;102042.97;;;19.72;100.00
38630;BME280;24384;51.988;4.644;2022-08-21T06:14:34;102032.28;;;20.21;100.00
38630;BME280;24384;51.988;4.644;2022-08-21T06:17:07;102036.88;;;19.85;100.00
38630;BME280;24384;51.988;4.644;2022-08-21T06:19:33;102031.28;;;19.89;100.00
38630;BME280;24384;51.988;4.644;2022-08-21T06:21:59;102024.94;;;20.07;100.00
38630;BME280;24384;51.988;4.644;2022-08-21T06:24:25;102036.38;;;19.95;100.00
38630;BME280;24384;51.988;4.644;2022-08-21T06:26:51;102029.28;;;19.89;100.00
38630;BME280;24384;51.988;4.644;2022-08-21T06:31:43;102029.34;;;20.05;100.00
38630;BME280;24384;51.988;4.644;2022-08-21T06:34:09;102024.69;;;20.13;100.00
38630;BME280;24384;51.988;4.644;2022-08-21T06:36:35;102016.13;;;20.25;100.00
38630;BME280;24384;51.988;4.644;2022-08-21T06:39:00;102012.44;;;20.52;100.00
38630;BME280;24384;51.988;4.644;2022-08-21T06:41:25;102013.81;;;20.42;100.00
38630;BME280;24384;51.988;4.644;2022-08-21T06:43:51;102002.13;;;20.35;100.00
38630;BME280;24384;51.988;4.644;2022-08-21T06:46:17;101992.09;;;20.69;100.00
38630;BME280;24384;51.988;4.644;2022-08-21T06:48:42;101995.19;;;20.48;100.00
38630;BME280;24384;51.988;4.644;2022-08-21T06:51:08;101998.78;;;20.73;100.00
38630;BME280;24384;51.988;4.644;2022-08-21T06:53:33;101986.88;;;20.71;100.00
38630;BME280;24384;51.988;4.644;2022-08-21T06:55:59;101988.34;;;20.81;100.00
38630;BME280;24384;51.988;4.644;2022-08-21T06:58:25;101989.72;;;20.71;100.00
38630;BME280;24384;51.988;4.644;2022-08-21T07:00:50;102001.41;;;21.37;100.00
38630;BME280;24384;51.988;4.644;2022-08-21T07:03:28;102000.53;;;20.50;100.00
38630;BME280;24384;51.988;4.644;2022-08-21T07:05:54;101985.50;;;20.81;100.00
38630;BME280;24384;51.988;4.644;2022-08-21T07:08:20;101986.63;;;20.92;100.00
38630;BME280;24384;51.988;4.644;2022-08-21T07:10:47;101998.91;;;20.49;100.00
38630;BME280;24384;51.988;4.644;2022-08-21T07:13:13;101995.97;;;20.89;100.00
38630;BME280;24384;51.988;4.644;2022-08-21T07:15:40;101988.09;;;21.13;100.00
38630;BME280;24384;51.988;4.644;2022-08-21T07:18:06;101992.44;;;20.95;100.00
38630;BME280;24384;51.988;4.644;2022-08-21T07:20:32;101994.31;;;21.03;100.00
38630;BME280;24384;51.988;4.644;2022-08-21T07:23:01;101996.97;;;21.08;100.00
38630;BME280;24384;51.988;4.644;2022-08-21T07:25:28;101998.09;;;21.51;100.00
38630;BME280;24384;51.988;4.644;2022-08-21T07:27:54;101990.97;;;21.45;100.00
38630;BME280;24384;51.988;4.644;2022-08-21T07:30:19;101982.88;;;21.66;100.00
38630;BME280;24384;51.988;4.644;2022-08-21T07:32:45;101974.84;;;21.87;100.00
38630;BME280;24384;51.988;4.644;2022-08-21T07:35:10;101962.44;;;22.37;100.00
38630;BME280;24384;51.988;4.644;2022-08-21T07:37:36;101953.91;;;22.02;100.00
38630;BME280;24384;51.988;4.644;2022-08-21T07:40:02;101948.91;;;21.99;100.00
38630;BME280;24384;51.988;4.644;2022-08-21T07:42:28;101937.63;;;22.64;100.00
38630;BME280;24384;51.988;4.644;2022-08-21T07:44:54;101924.00;;;22.61;100.00
38630;BME280;24384;51.988;4.644;2022-08-21T07:47:20;101928.88;;;22.99;100.00
38630;BME280;24384;51.988;4.644;2022-08-21T07:49:45;101912.50;;;22.61;100.00
38630;BME280;24384;51.988;4.644;2022-08-21T07:52:11;101912.50;;;22.22;100.00
38630;BME280;24384;51.988;4.644;2022-08-21T07:54:36;101923.53;;;22.78;100.00
38630;BME280;24384;51.988;4.644;2022-08-21T07:57:02;101925.06;;;22.14;100.00
38630;BME280;24384;51.988;4.644;2022-08-21T07:59:28;101932.16;;;22.20;100.00
38630;BME280;24384;51.988;4.644;2022-08-21T08:01:54;101932.22;;;22.62;100.00
38630;BME280;24384;51.988;4.644;2022-08-21T08:04:19;101922.97;;;22.92;100.00
38630;BME280;24384;51.988;4.644;2022-08-21T08:06:44;101928.28;;;23.12;100.00
38630;BME280;24384;51.988;4.644;2022-08-21T08:09:11;101914.94;;;22.59;100.00
38630;BME280;24384;51.988;4.644;2022-08-21T08:11:39;101924.13;;;22.87;100.00
38630;BME280;24384;51.988;4.644;2022-08-21T08:14:06;101911.41;;;22.88;100.00
38630;BME280;24384;51.988;4.644;2022-08-21T08:16:31;101900.84;;;23.93;100.00
38630;BME280;24384;51.988;4.644;2022-08-21T08:18:57;101882.81;;;23.67;100.00
38630;BME280;24384;51.988;4.644;2022-08-21T08:21:23;101884.19;;;24.06;100.00
38630;BME280;24384;51.988;4.644;2022-08-21T08:23:49;101879.78;;;23.86;100.00
38630;BME280;24384;51.988;4.644;2022-08-21T08:26:15;101884.78;;;23.89;100.00
38630;BME280;24384;51.988;4.644;2022-08-21T08:28:43;101865.31;;;24.42;100.00
38630;BME280;24384;51.988;4.644;2022-08-21T08:31:09;101867.97;;;24.21;100.00
38630;BME280;24384;51.988;4.644;2022-08-21T08:33:35;101857.94;;;24.44;100.00
38630;BME280;24384;51.988;4.644;2022-08-21T08:36:00;101854.13;;;24.33;100.00
38630;BME280;24384;51.988;4.644;2022-08-21T08:38:26;101843.84;;;24.73;100.00
38630;BME280;24384;51.988;4.644;2022-08-21T08:41:17;101849.84;;;24.20;100.00
38630;BME280;24384;51.988;4.644;2022-08-21T08:43:51;101845.25;;;24.86;100.00
38630;BME280;24384;51.988;4.644;2022-08-21T08:46:18;101841.59;;;24.52;100.00
38630;BME280;24384;51.988;4.644;2022-08-21T08:48:58;101836.19;;;24.50;100.00
38630;BME280;24384;51.988;4.644;2022-08-21T08:54:39;101831.63;;;24.83;100.00
38630;BME280;24384;51.988;4.644;2022-08-21T08:57:18;101824.25;;;25.36;100.00
38630;BME280;24384;51.988;4.644;2022-08-21T08:59:48;101821.53;;;25.03;100.00
38630;BME280;24384;51.988;4.644;2022-08-21T09:02:16;101811.00;;;25.97;100.00
38630;BME280;24384;51.988;4.644;2022-08-21T09:04:43;101807.91;;;25.58;100.00
38630;BME280;24384;51.988;4.644;2022-08-21T09:20:47;101809.06;;;26.22;100.00
38630;BME280;24384;51.988;4.644;2022-08-21T09:26:18;101801.66;;;26.35;100.00
38630;BME280;24384;51.988;4.644;2022-08-21T09:28:44;101801.44;;;25.86;100.00
38630;BME280;24384;51.988;4.644;2022-08-21T09:33:57;101798.09;;;24.68;100.00
38630;BME280;24384;51.988;4.644;2022-08-21T09:36:40;101802.41;;;24.84;100.00
38630;BME280;24384;51.988;4.644;2022-08-21T09:39:07;101804.06;;;24.85;100.00
38630;BME280;24384;51.988;4.644;2022-08-21T09:41:34;101814.75;;;24.85;100.00
38630;BME280;24384;51.988;4.644;2022-08-21T09:44:01;101802.09;;;25.47;100.00
38630;BME280;24384;51.988;4.644;2022-08-21T09:46:27;101804.78;;;25.88;100.00
38630;BME280;24384;51.988;4.644;2022-08-21T09:49:02;101795.38;;;26.05;100.00
38630;BME280;24384;51.988;4.644;2022-08-21T09:51:31;101795.91;;;26.49;100.00
38630;BME280;24384;51.988;4.644;2022-08-21T09:56:39;101788.44;;;26.23;100.00
38630;BME280;24384;51.988;4.644;2022-08-21T09:59:32;101783.59;;;26.80;100.00
38630;BME280;24384;51.988;4.644;2022-08-21T10:02:01;101782.34;;;26.99;100.00
38630;BME280;24384;51.988;4.644;2022-08-21T10:04:33;101791.88;;;26.93;100.00
38630;BME280;24384;51.988;4.644;2022-08-21T10:07:09;101797.19;;;25.58;100.00
38630;BME280;24384;51.988;4.644;2022-08-21T10:09:35;101804.94;;;24.52;100.00
38630;BME280;24384;51.988;4.644;2022-08-21T10:14:44;101808.81;;;23.97;100.00
38630;BME280;24384;51.988;4.644;2022-08-21T10:17:31;101810.41;;;24.24;100.00
38630;BME280;24384;51.988;4.644;2022-08-21T10:20:16;101812.72;;;24.12;100.00
38630;BME280;24384;51.988;4.644;2022-08-21T10:28:42;101816.34;;;23.75;100.00
38630;BME280;24384;51.988;4.644;2022-08-21T10:36:37;101806.66;;;24.20;100.00
38630;BME280;24384;51.988;4.644;2022-08-21T10:39:36;101806.19;;;24.15;100.00
38630;BME280;24384;51.988;4.644;2022-08-21T10:42:23;101799.09;;;24.09;100.00
38630;BME280;24384;51.988;4.644;2022-08-21T10:45:26;101790.13;;;24.14;100.00
38630;BME280;24384;51.988;4.644;2022-08-21T10:48:05;101790.59;;;24.19;100.00
38630;BME280;24384;51.988;4.644;2022-08-21T10:53:41;101791.66;;;24.41;100.00
38630;BME280;24384;51.988;4.644;2022-08-21T10:56:22;101788.97;;;25.02;100.00
38630;BME280;24384;51.988;4.644;2022-08-21T11:02:37;101796.78;;;24.21;100.00
38630;BME280;24384;51.988;4.644;2022-08-21T11:05:13;101793.53;;;23.89;100.00
38630;BME280;24384;51.988;4.644;2022-08-21T11:10:17;101808.28;;;24.18;100.00
38630;BME280;24384;51.988;4.644;2022-08-21T11:12:49;101799.34;;;24.26;100.00
38630;BME280;24384;51.988;4.644;2022-08-21T11:18:13;101804.78;;;24.38;100.00
38630;BME280;24384;51.988;4.644;2022-08-21T11:21:08;101803.63;;;24.43;100.00
38630;BME280;24384;51.988;4.644;2022-08-21T11:24:22;101803.28;;;24.92;100.00
38630;BME280;24384;51.988;4.644;2022-08-21T11:26:51;101800.34;;;24.44;100.00
38630;BME280;24384;51.988;4.644;2022-08-21T11:29:28;101803.34;;;24.58;100.00
38630;BME280;24384;51.988;4.644;2022-08-21T11:34:57;101804.94;;;24.52;100.00
38630;BME280;24384;51.988;4.644;2022-08-21T11:42:45;101806.00;;;24.04;100.00
38630;BME280;24384;51.988;4.644;2022-08-21T11:45:42;101814.88;;;23.88;100.00
38630;BME280;24384;51.988;4.644;2022-08-21T11:51:00;101821.88;;;23.91;100.00
38630;BME280;24384;51.988;4.644;2022-08-21T11:56:26;101823.97;;;24.24;100.00
38630;BME280;24384;51.988;4.644;2022-08-21T11:58:58;101819.97;;;24.32;100.00
38630;BME280;24384;51.988;4.644;2022-08-21T12:01:33;101808.81;;;24.30;100.00
38630;BME280;24384;51.988;4.644;2022-08-21T12:04:04;101813.69;;;24.23;100.00
38630;BME280;24384;51.988;4.644;2022-08-21T12:06:39;101811.03;;;25.35;100.00
38630;BME280;24384;51.988;4.644;2022-08-21T12:09:09;101807.63;;;24.75;100.00
38630;BME280;24384;51.988;4.644;2022-08-21T12:11:48;101798.06;;;24.61;100.00
38630;BME280;24384;51.988;4.644;2022-08-21T12:14:16;101797.88;;;24.46;100.00
38630;BME280;24384;51.988;4.644;2022-08-21T12:16:46;101800.56;;;24.69;100.00
38630;BME280;24384;51.988;4.644;2022-08-21T12:24:44;101801.84;;;25.74;100.00
38630;BME280;24384;51.988;4.644;2022-08-21T12:29:55;101816.44;;;24.86;100.00
38630;BME280;24384;51.988;4.644;2022-08-21T12:32:30;101812.44;;;26.63;100.00
38630;BME280;24384;51.988;4.644;2022-08-21T12:35:08;101814.84;;;26.22;100.00
38630;BME280;24384;51.988;4.644;2022-08-21T12:37:49;101818.66;;;26.68;100.00
38630;BME280;24384;51.988;4.644;2022-08-21T12:40:25;101818.72;;;27.46;100.00
38630;BME280;24384;51.988;4.644;2022-08-21T12:42:56;101803.16;;;28.23;100.00
38630;BME280;24384;51.988;4.644;2022-08-21T12:45:31;101798.97;;;28.93;100.00
38630;BME280;24384;51.988;4.644;2022-08-21T12:48:07;101807.75;;;28.14;100.00
38630;BME280;24384;51.988;4.644;2022-08-21T12:53:07;101814.03;;;25.49;100.00
38630;BME280;24384;51.988;4.644;2022-08-21T12:55:34;101812.88;;;26.65;100.00
38630;BME280;24384;51.988;4.644;2022-08-21T12:58:00;101813.72;;;27.36;100.00
38630;BME280;24384;51.988;4.644;2022-08-21T13:00:27;101816.38;;;28.28;100.00
38630;BME280;24384;51.988;4.644;2022-08-21T13:02:55;101817.72;;;26.18;100.00
38630;BME280;24384;51.988;4.644;2022-08-21T13:05:33;101817.66;;;26.11;100.00
38630;BME280;24384;51.988;4.644;2022-08-21T13:08:04;101817.38;;;25.51;100.00
38630;BME280;24384;51.988;4.644;2022-08-21T13:10:32;101811.56;;;26.34;100.00
38630;BME280;24384;51.988;4.644;2022-08-21T13:13:02;101814.00;;;26.18;100.00
38630;BME280;24384;51.988;4.644;2022-08-21T13:15:32;101817.19;;;25.99;100.00
38630;BME280;24384;51.988;4.644;2022-08-21T13:18:00;101820.00;;;25.20;100.00
38630;BME280;24384;51.988;4.644;2022-08-21T13:20:38;101828.91;;;26.38;100.00
38630;BME280;24384;51.988;4.644;2022-08-21T13:23:24;101808.22;;;27.94;100.00
38630;BME280;24384;51.988;4.644;2022-08-21T13:25:49;101808.22;;;27.94;100.00
38630;BME280;24384;51.988;4.644;2022-08-21T13:28:15;101821.16;;;27.33;100.00
38630;BME280;24384;51.988;4.644;2022-08-21T13:30:49;101819.81;;;27.94;100.00
38630;BME280;24384;51.988;4.644;2022-08-21T13:33:19;101823.63;;;26.75;100.00
38630;BME280;24384;51.988;4.644;2022-08-21T13:36:04;101829.78;;;26.63;100.00
38630;BME280;24384;51.988;4.644;2022-08-21T13:38:33;101820.25;;;26.48;100.00
38630;BME280;24384;51.988;4.644;2022-08-21T13:41:04;101817.47;;;26.91;100.00
38630;BME280;24384;51.988;4.644;2022-08-21T13:43:33;101825.88;;;26.06;100.00
38630;BME280;24384;51.988;4.644;2022-08-21T13:46:01;101824.84;;;25.59;100.00
38630;BME280;24384;51.988;4.644;2022-08-21T13:48:30;101823.03;;;26.13;100.00
38630;BME280;24384;51.988;4.644;2022-08-21T13:50:58;101818.59;;;25.50;100.00
38630;BME280;24384;51.988;4.644;2022-08-21T13:53:45;101826.22;;;25.25;100.00
38630;BME280;24384;51.988;4.644;2022-08-21T13:56:23;101828.59;;;24.69;100.00
38630;BME280;24384;51.988;4.644;2022-08-21T13:58:49;101816.44;;;24.86;100.00
38630;BME280;24384;51.988;4.644;2022-08-21T14:01:34;101838.53;;;24.78;100.00
38630;BME280;24384;51.988;4.644;2022-08-21T14:04:05;101836.66;;;24.56;100.00
38630;BME280;24384;51.988;4.644;2022-08-21T15:00:59;101836.66;;;24.56;100.00
38630;BME280;24384;51.988;4.644;2022-08-21T15:03:28;101838.97;;;24.40;100.00